createdAt,value
2022-08-13T00:01:00.837Z,46.20
2022-08-13T00:04:00.206Z,46.50
2022-08-13T00:06:36.195Z,46.70
2022-08-13T00:09:18.389Z,47.00
2022-08-13T00:12:04.827Z,47.40
2022-08-13T00:14:37.273Z,47.50
2022-08-13T00:17:15.276Z,47.80
2022-08-13T00:19:49.622Z,48.20
2022-08-13T00:22:29.954Z,48.50
2022-08-13T00:25:01.109Z,48.60
2022-08-13T00:27:41.704Z,48.90
2022-08-13T00:30:26.224Z,49.10
2022-08-13T00:32:56.714Z,49.30
2022-08-13T00:35:25.335Z,49.50
2022-08-13T00:38:09.347Z,49.70
2022-08-13T00:40:42.173Z,50.00
2022-08-13T00:43:22.909Z,50.30
2022-08-13T00:45:49.630Z,50.40
2022-08-13T00:48:52.597Z,50.50
2022-08-13T00:51:43.058Z,50.70
2022-08-13T00:54:17.926Z,51.00
2022-08-13T00:56:46.014Z,51.10
2022-08-13T00:59:14.007Z,51.20
2022-08-13T01:01:48.390Z,51.40
2022-08-13T01:04:27.148Z,51.50
2022-08-13T01:06:55.924Z,51.50
2022-08-13T01:10:18.229Z,51.50
2022-08-13T01:12:25.019Z,51.80
2022-08-13T01:14:57.859Z,51.80
2022-08-13T01:17:30.037Z,51.90
2022-08-13T01:20:33.524Z,51.90
2022-08-13T01:23:02.611Z,52.90
2022-08-13T01:25:29.773Z,51.70
2022-08-13T01:27:57.030Z,51.60
2022-08-13T01:30:24.868Z,51.50
2022-08-13T01:32:55.083Z,51.40
2022-08-13T01:35:25.562Z,51.40
2022-08-13T01:38:04.039Z,52.50
2022-08-13T01:40:35.659Z,51.40
2022-08-13T01:43:21.527Z,51.20
2022-08-13T01:45:51.855Z,51.30
2022-08-13T01:48:48.200Z,51.30
2022-08-13T01:51:43.380Z,51.40
2022-08-13T01:54:29.859Z,51.40
2022-08-13T01:57:00.522Z,51.20
2022-08-13T01:59:27.223Z,51.50
2022-08-13T02:02:31.548Z,51.70
2022-08-13T02:05:01.967Z,51.80
2022-08-13T02:08:01.747Z,52.10
2022-08-13T02:10:22.781Z,52.20
2022-08-13T02:12:50.848Z,52.20
2022-08-13T02:15:17.967Z,52.40
2022-08-13T02:18:03.207Z,52.50
2022-08-13T02:20:33.893Z,52.40
2022-08-13T02:23:04.930Z,52.40
2022-08-13T02:25:32.395Z,52.60
2022-08-13T02:27:59.477Z,52.60
2022-08-13T02:30:30.295Z,52.80
2022-08-13T02:33:01.103Z,52.90
2022-08-13T02:35:46.920Z,52.80
2022-08-13T02:38:16.033Z,52.80
2022-08-13T02:41:04.808Z,52.90
2022-08-13T02:43:54.560Z,52.80
2022-08-13T02:46:27.139Z,52.80
2022-08-13T02:48:54.614Z,52.90
2022-08-13T02:52:03.675Z,53.00
2022-08-13T02:54:12.535Z,53.00
2022-08-13T02:56:41.652Z,53.20
2022-08-13T02:59:29.667Z,53.50
2022-08-13T03:02:00.734Z,53.70
2022-08-13T03:04:32.511Z,53.70
2022-08-13T03:07:00.392Z,53.60
2022-08-13T03:09:29.107Z,53.60
2022-08-13T03:12:03.367Z,53.60
2022-08-13T03:14:33.279Z,53.60
2022-08-13T03:17:00.182Z,53.60
2022-08-13T03:19:28.977Z,53.60
2022-08-13T03:21:55.663Z,54.00
2022-08-13T03:24:31.516Z,53.70
2022-08-13T03:27:00.533Z,53.80
2022-08-13T03:29:57.639Z,54.00
2022-08-13T03:32:17.145Z,54.20
2022-08-13T03:34:44.884Z,54.30
2022-08-13T03:37:13.505Z,54.40
2022-08-13T03:39:42.184Z,54.50
2022-08-13T03:42:13.183Z,54.60
2022-08-13T03:44:46.616Z,54.70
2022-08-13T03:47:31.174Z,54.70
2022-08-13T03:50:00.585Z,54.80
2022-08-13T03:52:35.753Z,55.00
2022-08-13T03:55:06.183Z,55.00
2022-08-13T03:57:58.331Z,55.10
2022-08-13T04:00:23.102Z,55.10
2022-08-13T04:02:50.125Z,55.10
2022-08-13T04:05:21.266Z,55.20
2022-08-13T04:08:09.580Z,55.30
2022-08-13T04:10:51.675Z,55.60
2022-08-13T04:14:04.943Z,55.70
2022-08-13T04:16:15.744Z,55.70
2022-08-13T04:18:45.768Z,55.80
2022-08-13T04:21:22.143Z,55.80
2022-08-13T04:23:51.311Z,55.70
2022-08-13T04:26:30.676Z,55.70
2022-08-13T04:29:00.421Z,55.90
2022-08-13T04:31:46.450Z,55.80
2022-08-13T04:34:32.126Z,56.00
2022-08-13T04:37:04.936Z,56.00
2022-08-13T04:40:02.211Z,56.20
2022-08-13T04:42:32.223Z,56.20
2022-08-13T04:45:12.019Z,56.30
2022-08-13T04:47:40.713Z,56.30
2022-08-13T04:50:09.904Z,56.20
2022-08-13T04:52:38.276Z,56.20
2022-08-13T04:55:08.795Z,56.30
2022-08-13T04:57:55.698Z,56.20
2022-08-13T05:00:32.411Z,56.20
2022-08-13T05:03:33.245Z,56.40
2022-08-13T05:06:13.143Z,56.30
2022-08-13T05:08:41.346Z,56.10
2022-08-13T05:11:14.079Z,56.20
2022-08-13T05:13:44.945Z,56.30
2022-08-13T05:16:14.391Z,56.20
2022-08-13T05:18:46.488Z,56.20
2022-08-13T05:21:17.933Z,56.20
2022-08-13T05:26:06.757Z,56.20
2022-08-13T05:26:53.550Z,56.10
2022-08-13T05:31:56.152Z,56.20
2022-08-13T05:34:27.499Z,57.20
2022-08-13T05:38:12.141Z,56.20
2022-08-13T05:39:48.115Z,56.00
2022-08-13T05:42:18.596Z,56.10
2022-08-13T05:44:49.014Z,56.00
2022-08-13T05:47:16.455Z,57.10
2022-08-13T05:49:54.599Z,55.90
2022-08-13T05:52:35.189Z,55.80
2022-08-13T05:56:08.465Z,56.90
2022-08-13T05:57:53.422Z,55.40
2022-08-13T06:00:39.045Z,55.20
2022-08-13T06:04:15.886Z,55.10
2022-08-13T06:06:19.767Z,55.00
2022-08-13T06:08:47.797Z,54.90
2022-08-13T06:11:18.270Z,54.80
2022-08-13T06:14:05.142Z,54.70
2022-08-13T06:16:53.638Z,54.90
2022-08-13T06:19:27.707Z,54.70
2022-08-13T06:22:03.357Z,54.60
2022-08-13T06:24:33.417Z,54.30
2022-08-13T06:27:05.470Z,54.00
2022-08-13T06:29:48.839Z,54.00
2022-08-13T06:32:35.771Z,54.00
2022-08-13T06:35:09.448Z,54.00
2022-08-13T06:37:41.268Z,54.10
2022-08-13T06:40:32.353Z,54.10
2022-08-13T06:43:01.754Z,53.90
2022-08-13T06:45:33.438Z,54.10
2022-08-13T06:48:02.236Z,53.50
2022-08-13T06:50:31.649Z,53.70
2022-08-13T06:54:03.914Z,53.60
2022-08-13T06:56:04.838Z,53.50
2022-08-13T06:58:37.801Z,53.50
2022-08-13T07:01:04.987Z,53.50
2022-08-13T07:03:42.959Z,53.60
2022-08-13T07:06:28.054Z,53.50
2022-08-13T07:08:58.029Z,53.20
2022-08-13T07:11:38.715Z,52.80
2022-08-13T07:14:09.357Z,52.70
2022-08-13T07:16:42.364Z,52.70
2022-08-13T07:19:11.449Z,52.50
2022-08-13T07:21:42.028Z,52.00
2022-08-13T07:24:37.041Z,51.60
2022-08-13T07:27:10.641Z,51.40
2022-08-13T07:29:51.868Z,51.50
2022-08-13T07:32:29.126Z,51.50
2022-08-13T07:35:01.144Z,51.40
2022-08-13T07:37:28.785Z,51.10
2022-08-13T07:40:00.986Z,51.10
2022-08-13T07:42:31.327Z,51.00
2022-08-13T07:46:23.129Z,50.70
2022-08-13T07:48:27.491Z,50.50
2022-08-13T07:50:40.364Z,50.50
2022-08-13T07:53:14.590Z,50.30
2022-08-13T07:56:07.816Z,50.30
2022-08-13T07:58:34.449Z,50.20
2022-08-13T08:01:02.964Z,49.80
2022-08-13T08:03:51.245Z,49.80
2022-08-13T08:06:29.049Z,49.50
2022-08-13T08:08:59.840Z,49.00
2022-08-13T08:11:51.069Z,48.60
2022-08-13T08:14:30.898Z,47.90
2022-08-13T08:17:00.492Z,47.20
2022-08-13T08:20:17.949Z,46.70
2022-08-13T08:22:35.531Z,46.30
2022-08-13T08:25:04.462Z,45.50
2022-08-13T08:28:01.841Z,44.90
2022-08-13T08:30:30.705Z,44.30
2022-08-13T08:33:02.528Z,44.20
2022-08-13T08:35:45.225Z,43.30
2022-08-13T08:38:33.674Z,42.70
2022-08-13T08:41:20.216Z,42.00
2022-08-13T08:43:51.143Z,41.10
2022-08-13T08:46:18.833Z,41.00
2022-08-13T08:48:53.356Z,40.20
2022-08-13T08:51:23.526Z,40.00
2022-08-13T08:54:11.105Z,39.60
2022-08-13T08:56:54.241Z,40.20
2022-08-13T08:59:36.763Z,38.60
2022-08-13T09:02:21.061Z,38.50
2022-08-13T09:05:00.223Z,38.00
2022-08-13T09:07:37.680Z,37.60
2022-08-13T09:10:07.429Z,37.00
2022-08-13T09:12:35.507Z,36.80
2022-08-13T09:15:02.515Z,36.50
2022-08-13T09:17:36.111Z,35.80
2022-08-13T09:20:13.764Z,35.60
2022-08-13T09:22:43.468Z,36.00
2022-08-13T09:25:24.548Z,35.70
2022-08-13T09:28:02.921Z,35.10
2022-08-13T09:30:43.031Z,35.00
2022-08-13T09:33:13.597Z,36.20
2022-08-13T09:35:41.946Z,34.50
2022-08-13T09:38:12.807Z,34.50
2022-08-13T09:41:11.484Z,34.10
2022-08-13T09:43:43.923Z,34.10
2022-08-13T09:46:20.321Z,34.20
2022-08-13T09:48:50.954Z,33.70
2022-08-13T09:51:55.425Z,33.30
2022-08-13T09:54:08.362Z,33.50
2022-08-13T09:56:40.295Z,33.60
2022-08-13T09:59:15.383Z,33.10
2022-08-13T10:01:56.210Z,32.60
2022-08-13T10:04:25.053Z,32.20
2022-08-13T10:06:58.038Z,31.70
2022-08-13T10:09:33.037Z,32.10
2022-08-13T10:12:17.763Z,31.50
2022-08-13T10:14:55.573Z,31.50
2022-08-13T10:17:43.107Z,31.20
2022-08-13T10:20:37.648Z,30.80
2022-08-13T10:23:07.293Z,30.30
2022-08-13T10:25:48.201Z,30.60
2022-08-13T10:28:30.136Z,30.60
2022-08-13T10:31:46.768Z,30.20
2022-08-13T10:33:47.095Z,29.40
2022-08-13T10:36:15.827Z,29.70
2022-08-13T10:38:52.298Z,29.80
2022-08-13T10:41:20.230Z,29.20
2022-08-13T10:43:58.569Z,29.20
2022-08-13T10:46:31.085Z,29.00
2022-08-13T10:48:59.465Z,28.50
2022-08-13T10:51:31.592Z,28.70
2022-08-13T10:54:03.394Z,28.70
2022-08-13T10:56:33.120Z,28.30
2022-08-13T10:59:03.703Z,28.10
2022-08-13T11:01:33.032Z,27.90
2022-08-13T11:04:06.243Z,28.00
2022-08-13T11:06:36.398Z,28.10
2022-08-13T11:09:24.198Z,28.20
2022-08-13T11:11:56.411Z,28.20
2022-08-13T11:14:28.596Z,28.50
2022-08-13T11:17:05.237Z,28.30
2022-08-13T11:19:49.651Z,28.20
2022-08-13T11:22:26.514Z,27.80
2022-08-13T11:24:57.695Z,27.90
2022-08-13T11:27:30.768Z,27.90
2022-08-13T11:30:13.134Z,27.70
2022-08-13T11:32:40.406Z,27.40
2022-08-13T11:35:10.394Z,27.00
2022-08-13T11:37:40.247Z,27.40
2022-08-13T11:40:30.829Z,27.20
2022-08-13T11:43:10.773Z,26.90
2022-08-13T11:45:44.228Z,26.60
2022-08-13T11:48:13.559Z,26.50
2022-08-13T11:50:50.189Z,26.50
2022-08-13T11:53:20.542Z,26.70
2022-08-13T11:56:00.759Z,27.00
2022-08-13T11:58:32.380Z,27.10
2022-08-13T12:01:17.805Z,27.10
2022-08-13T12:04:13.179Z,27.10
2022-08-13T12:06:31.247Z,27.30
2022-08-13T12:09:23.037Z,27.00
2022-08-13T12:12:08.111Z,26.40
2022-08-13T12:14:32.098Z,26.20
2022-08-13T12:16:59.784Z,26.30
2022-08-13T12:19:28.439Z,26.20
2022-08-13T12:21:55.136Z,26.40
2022-08-13T12:24:21.876Z,26.10
2022-08-13T12:27:00.164Z,25.90
2022-08-13T12:29:31.186Z,25.60
2022-08-13T12:32:14.654Z,25.80
2022-08-13T12:34:42.507Z,25.90
2022-08-13T12:37:23.108Z,26.60
2022-08-13T12:39:52.731Z,25.70
2022-08-13T12:42:21.523Z,25.70
2022-08-13T12:45:05.664Z,25.50
2022-08-13T12:47:35.039Z,25.70
2022-08-13T12:50:07.089Z,25.50
2022-08-13T12:52:34.266Z,25.30
2022-08-13T12:55:08.606Z,25.80
2022-08-13T12:58:02.258Z,25.90
2022-08-13T13:00:33.019Z,26.50
2022-08-13T13:03:02.563Z,26.00
2022-08-13T13:05:35.250Z,25.80
2022-08-13T13:08:29.601Z,25.70
2022-08-13T13:11:03.292Z,26.00
2022-08-13T13:13:54.399Z,25.80
2022-08-13T13:16:33.981Z,25.70
2022-08-13T13:19:10.300Z,25.50
2022-08-13T13:21:42.478Z,25.70
2022-08-13T13:24:16.747Z,25.50
2022-08-13T13:26:51.233Z,25.60
2022-08-13T13:29:23.790Z,25.70
2022-08-13T13:32:38.588Z,25.60
2022-08-13T13:34:38.418Z,25.70
2022-08-13T13:37:05.945Z,25.80
2022-08-13T13:39:44.290Z,25.70
2022-08-13T13:42:17.534Z,25.70
2022-08-13T13:44:55.955Z,25.20
2022-08-13T13:47:23.968Z,25.40
2022-08-13T13:49:50.617Z,25.00
2022-08-13T13:52:17.261Z,25.00
2022-08-13T13:54:53.508Z,24.80
2022-08-13T13:57:26.500Z,24.70
2022-08-13T14:00:07.571Z,25.00
2022-08-13T14:02:39.804Z,25.00
2022-08-13T14:05:19.896Z,24.60
2022-08-13T14:08:01.705Z,24.80
2022-08-13T14:10:31.588Z,25.00
2022-08-13T14:13:17.884Z,25.40
2022-08-13T14:15:49.741Z,25.50
2022-08-13T14:18:26.962Z,26.00
2022-08-13T14:20:56.853Z,25.50
2022-08-13T14:23:39.128Z,25.60
2022-08-13T14:26:10.180Z,25.70
2022-08-13T14:28:41.255Z,25.70
2022-08-13T14:31:11.234Z,25.80
2022-08-13T14:33:58.607Z,25.70
2022-08-13T14:36:31.096Z,25.80
2022-08-13T14:39:00.285Z,25.90
2022-08-13T14:41:27.123Z,25.60
2022-08-13T14:44:02.167Z,25.20
2022-08-13T14:46:33.196Z,25.40
2022-08-13T14:49:04.493Z,25.90
2022-08-13T14:52:03.332Z,25.70
2022-08-13T14:54:21.174Z,25.70
2022-08-13T14:56:50.869Z,25.90
2022-08-13T14:59:21.720Z,25.60
2022-08-13T15:01:51.537Z,25.60
2022-08-13T15:04:23.741Z,25.90
2022-08-13T15:06:54.462Z,25.90
2022-08-13T15:09:22.450Z,25.80
2022-08-13T15:11:52.691Z,25.40
2022-08-13T15:14:23.727Z,25.60
2022-08-13T15:16:53.892Z,25.90
2022-08-13T15:19:24.275Z,25.40
2022-08-13T15:21:51.957Z,25.70
2022-08-13T15:24:37.736Z,25.40
2022-08-13T15:27:34.351Z,25.50
2022-08-13T15:30:06.374Z,25.50
2022-08-13T15:32:34.689Z,25.90
2022-08-13T15:35:03.926Z,25.50
2022-08-13T15:37:56.317Z,25.50
2022-08-13T15:40:21.755Z,25.50
2022-08-13T15:42:57.573Z,25.50
2022-08-13T15:45:25.417Z,25.30
2022-08-13T15:47:55.388Z,25.40
2022-08-13T15:50:29.093Z,25.50
2022-08-13T15:52:56.330Z,25.70
2022-08-13T15:55:26.163Z,25.70
2022-08-13T15:57:54.902Z,25.80
2022-08-13T16:00:24.305Z,25.90
2022-08-13T16:02:56.645Z,26.00
2022-08-13T16:05:37.983Z,26.20
2022-08-13T16:08:08.044Z,26.30
2022-08-13T16:10:37.240Z,26.10
2022-08-13T16:13:10.326Z,26.00
2022-08-13T16:15:51.458Z,26.00
2022-08-13T16:18:35.186Z,26.10
2022-08-13T16:21:04.192Z,26.40
2022-08-13T16:23:42.271Z,26.50
2022-08-13T16:26:18.938Z,26.40
2022-08-13T16:28:48.265Z,26.40
2022-08-13T16:31:18.371Z,26.30
2022-08-13T16:33:50.391Z,26.10
2022-08-13T16:36:21.187Z,26.10
2022-08-13T16:38:47.943Z,25.70
2022-08-13T16:41:16.795Z,25.80
2022-08-13T16:44:00.161Z,26.00
2022-08-13T16:46:36.884Z,26.00
2022-08-13T16:49:05.840Z,26.10
2022-08-13T16:51:36.602Z,26.20
2022-08-13T16:54:35.423Z,26.20
2022-08-13T16:56:53.806Z,26.50
2022-08-13T16:59:21.036Z,26.50
2022-08-13T17:01:54.624Z,26.60
2022-08-13T17:05:19.111Z,26.70
2022-08-13T17:07:47.566Z,27.00
2022-08-13T17:10:20.482Z,26.60
2022-08-13T17:12:49.990Z,26.80
2022-08-13T17:15:22.000Z,26.70
2022-08-13T17:17:53.897Z,26.50
2022-08-13T17:20:23.141Z,26.70
2022-08-13T17:22:52.621Z,26.80
2022-08-13T17:25:19.861Z,26.90
2022-08-13T17:27:52.492Z,27.00
2022-08-13T17:30:20.753Z,26.90
2022-08-13T17:32:48.565Z,27.00
2022-08-13T17:35:17.295Z,27.00
2022-08-13T17:37:59.092Z,27.30
2022-08-13T17:40:35.407Z,27.50
2022-08-13T17:44:02.565Z,27.30
2022-08-13T17:45:59.661Z,27.40
2022-08-13T17:48:39.357Z,27.70
2022-08-13T17:51:22.329Z,28.00
2022-08-13T17:53:49.677Z,28.00
2022-08-13T17:56:16.349Z,28.20
2022-08-13T17:58:45.621Z,28.40
2022-08-13T18:01:22.630Z,28.20
2022-08-13T18:03:57.628Z,29.50
2022-08-13T18:06:31.436Z,29.50
2022-08-13T18:09:02.839Z,30.40
2022-08-13T18:11:31.650Z,31.50
2022-08-13T18:14:13.252Z,31.90
2022-08-13T18:17:03.258Z,34.00
2022-08-13T18:19:34.473Z,36.20
2022-08-13T18:22:05.131Z,36.00
2022-08-13T18:24:32.253Z,35.80
2022-08-13T18:27:00.713Z,35.90
2022-08-13T18:29:59.823Z,38.60
2022-08-13T18:32:20.472Z,38.70
2022-08-13T18:34:54.919Z,38.80
2022-08-13T18:37:21.788Z,38.60
2022-08-13T18:39:50.619Z,39.00
2022-08-13T18:42:27.176Z,38.30
2022-08-13T18:45:00.556Z,38.70
2022-08-13T18:47:29.574Z,37.70
2022-08-13T18:49:56.636Z,37.10
2022-08-13T18:52:48.851Z,36.90
2022-08-13T18:55:15.574Z,36.80
2022-08-13T18:57:43.165Z,36.90
2022-08-13T19:00:13.321Z,37.00
2022-08-13T19:02:44.438Z,37.00
2022-08-13T19:05:22.934Z,37.10
2022-08-13T19:07:52.622Z,37.00
2022-08-13T19:10:22.191Z,37.20
2022-08-13T19:12:53.845Z,37.40
2022-08-13T19:15:21.209Z,37.80
2022-08-13T19:17:55.554Z,37.80
2022-08-13T19:20:35.416Z,38.00
2022-08-13T19:23:12.986Z,38.50
2022-08-13T19:25:55.609Z,39.20
2022-08-13T19:28:34.734Z,39.90
2022-08-13T19:31:18.435Z,39.90
2022-08-13T19:33:48.397Z,40.20
2022-08-13T19:36:17.248Z,40.70
2022-08-13T19:39:01.034Z,40.50
2022-08-13T19:41:35.366Z,40.70
2022-08-13T19:44:04.590Z,40.90
2022-08-13T19:46:35.457Z,41.40
2022-08-13T19:49:06.605Z,42.00
2022-08-13T19:51:38.532Z,42.10
2022-08-13T19:54:14.024Z,42.20
2022-08-13T19:56:41.757Z,42.30
2022-08-13T19:59:15.889Z,43.10
2022-08-13T20:01:43.195Z,43.30
2022-08-13T20:04:13.316Z,43.40
2022-08-13T20:06:42.194Z,44.40
2022-08-13T20:09:10.358Z,44.20
2022-08-13T20:11:38.600Z,44.30
2022-08-13T20:14:12.614Z,45.00
2022-08-13T20:16:48.148Z,46.00
2022-08-13T20:19:59.002Z,45.00
2022-08-13T20:22:10.349Z,45.20
2022-08-13T20:25:47.920Z,45.10
2022-08-13T20:27:50.519Z,45.90
2022-08-13T20:30:16.139Z,46.60
2022-08-13T20:32:52.570Z,46.40
2022-08-13T20:35:24.448Z,46.00
2022-08-13T20:37:53.741Z,46.30
2022-08-13T20:40:25.427Z,46.30
2022-08-13T20:42:56.470Z,46.40
2022-08-13T20:45:27.437Z,46.80
2022-08-13T20:48:13.213Z,47.10
2022-08-13T20:50:40.241Z,46.90
2022-08-13T20:53:15.107Z,46.70
2022-08-13T20:55:42.994Z,47.10
2022-08-13T21:00:40.312Z,47.60
2022-08-13T21:00:56.983Z,47.60
2022-08-13T21:03:24.944Z,48.10
2022-08-13T21:05:55.043Z,48.10
2022-08-13T21:08:22.087Z,48.20
2022-08-13T21:10:50.562Z,48.50
2022-08-13T21:13:30.774Z,48.90
2022-08-13T21:16:18.332Z,48.80
2022-08-13T21:18:49.824Z,48.70
2022-08-13T21:21:20.663Z,48.50
2022-08-13T21:23:50.536Z,48.60
2022-08-13T21:26:22.225Z,48.70
2022-08-13T21:29:34.002Z,48.70
2022-08-13T21:32:10.115Z,48.90
2022-08-13T21:34:26.029Z,48.70
2022-08-13T21:36:59.504Z,48.60
2022-08-13T21:39:26.963Z,48.30
2022-08-13T21:41:56.322Z,48.70
2022-08-13T21:44:23.453Z,48.40
2022-08-13T21:46:58.200Z,48.80
2022-08-13T21:49:26.997Z,48.80
2022-08-13T21:52:10.462Z,49.20
2022-08-13T21:54:43.328Z,49.00
2022-08-13T21:57:21.839Z,48.70
2022-08-13T21:59:52.081Z,48.80
2022-08-13T22:02:19.146Z,48.70
2022-08-13T22:04:46.281Z,48.50
2022-08-13T22:07:13.651Z,48.70
2022-08-13T22:09:41.358Z,48.90
2022-08-13T22:12:10.633Z,49.10
2022-08-13T22:14:42.089Z,49.10
2022-08-13T22:17:14.673Z,49.40
2022-08-13T22:19:41.735Z,49.10
2022-08-13T22:22:17.698Z,48.90
2022-08-13T22:24:44.599Z,48.70
2022-08-13T22:27:13.006Z,49.10
2022-08-13T22:29:58.972Z,49.20
2022-08-13T22:32:26.278Z,49.10
2022-08-13T22:34:57.958Z,49.20
2022-08-13T22:37:25.376Z,50.30
2022-08-13T22:39:53.797Z,49.60
2022-08-13T22:42:27.184Z,49.80
2022-08-13T22:44:54.131Z,49.70
2022-08-13T22:47:21.139Z,50.20
2022-08-13T22:49:49.884Z,50.40
2022-08-13T22:52:19.944Z,50.40
2022-08-13T22:54:47.207Z,50.20
2022-08-13T22:57:14.234Z,50.30
2022-08-13T22:59:41.206Z,50.50
2022-08-13T23:02:10.884Z,50.50
2022-08-13T23:04:41.693Z,50.60
2022-08-13T23:07:09.536Z,50.70
2022-08-13T23:09:36.222Z,50.80
2022-08-13T23:12:04.572Z,51.00
2022-08-13T23:14:31.903Z,50.80
2022-08-13T23:16:59.860Z,51.00
2022-08-13T23:19:29.425Z,51.20
2022-08-13T23:22:03.656Z,51.20
2022-08-13T23:24:30.331Z,51.10
2022-08-13T23:26:57.027Z,51.10
2022-08-13T23:29:24.536Z,51.20
2022-08-13T23:31:57.468Z,51.10
2022-08-13T23:34:28.256Z,51.00
2022-08-13T23:36:55.970Z,51.10
2022-08-13T23:39:26.443Z,51.20
2022-08-13T23:41:54.301Z,51.20
2022-08-13T23:44:38.370Z,51.30
2022-08-13T23:47:07.163Z,51.40
2022-08-13T23:49:36.977Z,51.50
2022-08-13T23:52:06.833Z,51.70
2022-08-13T23:54:38.315Z,51.80
2022-08-13T23:57:06.982Z,52.10
2022-08-13T23:59:39.526Z,52.00
